createdAt,value
2022-08-27T00:00:57.861Z,20.72
2022-08-27T00:03:45.017Z,20.72
2022-08-27T00:06:30.925Z,20.78
2022-08-27T00:09:16.621Z,20.91
2022-08-27T00:12:13.573Z,20.95
2022-08-27T00:15:00.361Z,21.02
2022-08-27T00:17:46.803Z,20.92
2022-08-27T00:20:32.648Z,20.96
2022-08-27T00:23:17.950Z,20.93
2022-08-27T00:26:05.738Z,21.01
2022-08-27T00:28:52.075Z,20.98
2022-08-27T00:31:37.854Z,20.93
2022-08-27T00:34:23.860Z,20.93
2022-08-27T00:37:09.437Z,20.90
2022-08-27T00:39:55.229Z,20.98
2022-08-27T00:42:42.365Z,20.95
2022-08-27T00:45:28.142Z,20.89
2022-08-27T00:48:18.277Z,21.01
2022-08-27T00:51:05.776Z,20.88
2022-08-27T00:53:53.681Z,20.90
2022-08-27T00:56:51.415Z,20.74
2022-08-27T00:59:38.360Z,20.79
2022-08-27T01:02:29.262Z,20.84
2022-08-27T01:05:18.492Z,20.94
2022-08-27T01:08:09.256Z,20.85
2022-08-27T01:10:58.333Z,20.95
2022-08-27T01:14:00.114Z,20.79
2022-08-27T01:16:51.521Z,20.89
2022-08-27T01:19:53.811Z,20.80
2022-08-27T01:23:01.598Z,20.86
2022-08-27T01:25:47.685Z,20.85
2022-08-27T01:28:35.787Z,20.77
2022-08-27T01:31:23.717Z,20.52
2022-08-27T01:34:09.147Z,20.66
2022-08-27T01:36:57.424Z,20.69
2022-08-27T01:39:43.332Z,20.80
2022-08-27T01:42:39.408Z,20.83
2022-08-27T01:45:29.528Z,20.79
2022-08-27T01:48:16.504Z,20.63
2022-08-27T01:51:01.769Z,20.68
2022-08-27T01:53:48.250Z,20.76
2022-08-27T01:56:33.669Z,20.65
2022-08-27T01:59:19.319Z,20.73
2022-08-27T02:02:05.818Z,20.82
2022-08-27T02:04:51.964Z,20.75
2022-08-27T02:07:38.881Z,20.69
2022-08-27T02:10:33.060Z,20.66
2022-08-27T02:13:18.705Z,20.45
2022-08-27T02:16:04.564Z,20.64
2022-08-27T02:18:50.333Z,20.64
2022-08-27T02:21:36.149Z,20.42
2022-08-27T02:24:21.723Z,20.46
2022-08-27T02:27:07.863Z,20.34
2022-08-27T02:29:55.370Z,20.38
2022-08-27T02:32:40.772Z,20.43
2022-08-27T02:35:27.368Z,20.44
2022-08-27T02:38:13.937Z,20.56
2022-08-27T02:40:59.397Z,20.57
2022-08-27T02:43:45.605Z,20.41
2022-08-27T02:46:31.594Z,20.32
2022-08-27T02:49:17.962Z,20.35
2022-08-27T02:52:03.782Z,20.38
2022-08-27T02:54:50.279Z,20.21
2022-08-27T02:57:36.604Z,20.35
2022-08-27T03:00:24.340Z,20.33
2022-08-27T03:03:10.650Z,20.25
2022-08-27T03:05:58.031Z,20.21
2022-08-27T03:08:53.333Z,20.28
2022-08-27T03:11:39.521Z,20.17
2022-08-27T03:14:25.132Z,20.32
2022-08-27T03:17:29.286Z,20.39
2022-08-27T03:20:14.903Z,20.26
2022-08-27T03:23:00.616Z,20.07
2022-08-27T03:25:51.869Z,20.04
2022-08-27T03:28:38.657Z,20.01
2022-08-27T03:31:27.218Z,19.93
2022-08-27T03:34:13.212Z,19.99
2022-08-27T03:37:00.239Z,19.90
2022-08-27T03:39:46.037Z,19.82
2022-08-27T03:42:31.639Z,20.04
2022-08-27T03:45:17.118Z,20.00
2022-08-27T03:48:02.649Z,20.15
2022-08-27T03:50:49.974Z,20.11
2022-08-27T03:53:37.646Z,20.12
2022-08-27T03:56:23.140Z,20.22
2022-08-27T03:59:08.834Z,20.19
2022-08-27T04:01:54.523Z,20.18
2022-08-27T04:04:40.054Z,20.29
2022-08-27T04:07:25.702Z,20.12
2022-08-27T04:10:12.300Z,20.13
2022-08-27T04:12:57.623Z,20.11
2022-08-27T04:15:44.833Z,20.11
2022-08-27T04:18:30.806Z,20.19
2022-08-27T04:21:16.169Z,20.02
2022-08-27T04:24:02.186Z,20.11
2022-08-27T04:26:47.767Z,20.23
2022-08-27T04:29:33.731Z,20.13
2022-08-27T04:32:19.349Z,20.06
2022-08-27T04:35:05.549Z,20.17
2022-08-27T04:37:51.440Z,20.09
2022-08-27T04:40:56.575Z,20.07
2022-08-27T04:43:42.281Z,19.94
2022-08-27T04:46:30.718Z,19.89
2022-08-27T04:49:16.812Z,20.12
2022-08-27T04:52:03.579Z,20.26
2022-08-27T04:54:50.417Z,20.17
2022-08-27T04:57:37.856Z,20.15
2022-08-27T05:00:23.454Z,20.09
2022-08-27T05:03:08.939Z,20.17
2022-08-27T05:06:03.294Z,20.25
2022-08-27T05:08:50.334Z,20.35
2022-08-27T05:11:35.622Z,20.28
2022-08-27T05:14:22.133Z,20.26
2022-08-27T05:17:07.549Z,20.21
2022-08-27T05:19:53.180Z,20.11
2022-08-27T05:22:39.589Z,20.12
2022-08-27T05:25:26.671Z,20.25
2022-08-27T05:28:13.501Z,20.29
2022-08-27T05:31:06.458Z,20.19
2022-08-27T05:33:51.869Z,20.18
2022-08-27T05:36:48.922Z,20.26
2022-08-27T05:39:34.648Z,20.38
2022-08-27T05:42:20.208Z,20.33
2022-08-27T05:45:06.017Z,20.37
2022-08-27T05:47:51.471Z,20.52
2022-08-27T05:50:38.409Z,20.74
2022-08-27T05:53:24.111Z,20.73
2022-08-27T05:56:24.338Z,20.66
2022-08-27T05:59:28.174Z,20.61
2022-08-27T06:02:13.794Z,20.60
2022-08-27T06:04:59.240Z,20.53
2022-08-27T06:07:44.642Z,20.52
2022-08-27T06:10:30.360Z,20.48
2022-08-27T06:13:15.642Z,20.44
2022-08-27T06:16:03.688Z,20.63
2022-08-27T06:18:52.065Z,20.47
2022-08-27T06:21:37.653Z,20.62
2022-08-27T06:24:23.466Z,20.50
2022-08-27T06:27:14.808Z,20.49
2022-08-27T06:30:00.485Z,20.57
2022-08-27T06:32:46.441Z,20.64
2022-08-27T06:35:34.926Z,20.56
2022-08-27T06:38:20.563Z,20.65
2022-08-27T06:41:08.223Z,20.66
2022-08-27T06:44:11.049Z,20.60
2022-08-27T06:46:56.628Z,20.67
2022-08-27T06:49:43.823Z,20.39
2022-08-27T06:52:32.341Z,20.53
2022-08-27T06:55:17.745Z,20.60
2022-08-27T06:58:03.218Z,20.63
2022-08-27T07:00:49.184Z,20.66
2022-08-27T07:03:34.791Z,20.56
2022-08-27T07:06:20.435Z,20.71
2022-08-27T07:09:06.759Z,20.80
2022-08-27T07:11:52.147Z,20.92
2022-08-27T07:14:38.559Z,20.58
2022-08-27T07:17:24.184Z,20.82
2022-08-27T07:20:10.308Z,20.88
2022-08-27T07:22:58.703Z,20.97
2022-08-27T07:25:44.608Z,20.92
2022-08-27T07:28:30.058Z,20.97
2022-08-27T07:31:22.268Z,21.36
2022-08-27T07:34:08.060Z,21.35
2022-08-27T07:36:53.341Z,21.33
2022-08-27T07:39:38.865Z,21.19
2022-08-27T07:42:42.672Z,21.16
2022-08-27T07:45:29.693Z,21.00
2022-08-27T07:48:16.325Z,21.18
2022-08-27T07:51:05.154Z,21.37
2022-08-27T07:53:51.002Z,21.44
2022-08-27T07:56:36.706Z,21.67
2022-08-27T07:59:24.089Z,21.35
2022-08-27T08:02:10.207Z,21.59
2022-08-27T08:04:56.005Z,21.46
2022-08-27T08:07:41.584Z,21.50
2022-08-27T08:10:27.338Z,21.76
2022-08-27T08:13:12.661Z,21.74
2022-08-27T08:15:59.220Z,21.64
2022-08-27T08:18:44.716Z,21.57
2022-08-27T08:21:30.338Z,21.54
2022-08-27T08:24:15.592Z,21.63
2022-08-27T08:27:05.082Z,21.68
2022-08-27T08:29:52.755Z,21.69
2022-08-27T08:32:38.686Z,21.40
2022-08-27T08:35:24.486Z,21.43
2022-08-27T08:38:10.279Z,21.47
2022-08-27T08:40:56.201Z,21.02
2022-08-27T08:43:51.285Z,21.02
2022-08-27T08:46:47.417Z,21.36
2022-08-27T08:49:38.799Z,21.40
2022-08-27T08:52:31.498Z,21.43
2022-08-27T08:55:23.645Z,21.25
2022-08-27T08:58:30.451Z,21.36
2022-08-27T09:01:20.534Z,21.42
2022-08-27T09:04:11.336Z,21.31
2022-08-27T09:07:03.810Z,21.23
2022-08-27T09:10:14.457Z,21.38
2022-08-27T09:13:03.558Z,21.42
2022-08-27T09:15:49.166Z,21.70
2022-08-27T09:18:37.407Z,21.77
2022-08-27T09:21:52.285Z,22.12
2022-08-27T09:25:06.185Z,21.96
2022-08-27T09:27:53.107Z,21.81
2022-08-27T09:30:43.349Z,21.81
2022-08-27T09:33:43.836Z,21.42
2022-08-27T09:36:34.343Z,21.67
2022-08-27T09:39:20.684Z,21.81
2022-08-27T09:42:07.353Z,21.74
2022-08-27T09:44:53.900Z,21.88
2022-08-27T09:47:44.959Z,22.03
2022-08-27T09:50:58.267Z,21.91
2022-08-27T09:54:01.988Z,21.90
2022-08-27T09:56:49.189Z,21.85
2022-08-27T09:59:40.243Z,21.88
2022-08-27T10:02:27.284Z,21.86
2022-08-27T10:05:24.917Z,21.84
2022-08-27T10:08:40.988Z,21.82
2022-08-27T10:11:35.833Z,21.71
2022-08-27T10:14:32.035Z,21.98
2022-08-27T10:17:40.670Z,21.81
2022-08-27T10:20:38.961Z,21.85
2022-08-27T10:23:43.148Z,21.80
2022-08-27T10:26:38.211Z,21.71
2022-08-27T10:29:39.765Z,21.68
2022-08-27T10:33:03.848Z,21.42
2022-08-27T10:36:02.509Z,21.58
2022-08-27T10:39:09.480Z,21.75
2022-08-27T10:42:10.387Z,21.73
2022-08-27T10:45:11.617Z,21.61
2022-08-27T10:48:24.420Z,21.63
2022-08-27T10:51:16.905Z,21.42
2022-08-27T10:55:00.034Z,21.55
2022-08-27T10:58:14.650Z,21.48
2022-08-27T11:01:16.680Z,21.58
2022-08-27T11:04:08.490Z,21.78
2022-08-27T11:07:07.312Z,22.07
2022-08-27T11:09:58.543Z,21.92
2022-08-27T11:12:47.877Z,21.59
2022-08-27T11:15:37.351Z,21.27
2022-08-27T11:18:51.603Z,21.62
2022-08-27T11:21:55.008Z,21.36
2022-08-27T11:25:10.468Z,21.81
2022-08-27T11:27:58.338Z,21.79
2022-08-27T11:31:09.205Z,21.92
2022-08-27T11:34:14.609Z,21.89
2022-08-27T11:37:39.745Z,21.84
2022-08-27T11:40:44.100Z,21.62
2022-08-27T11:43:34.590Z,21.95
2022-08-27T11:46:26.290Z,21.58
2022-08-27T11:49:23.164Z,21.60
2022-08-27T11:52:10.159Z,21.07
2022-08-27T11:55:10.936Z,20.99
2022-08-27T11:58:06.431Z,20.77
2022-08-27T12:00:55.785Z,20.81
2022-08-27T12:03:43.018Z,20.75
2022-08-27T12:06:39.822Z,20.70
2022-08-27T12:09:25.428Z,20.76
2022-08-27T12:12:24.333Z,20.86
2022-08-27T12:15:35.550Z,21.01
2022-08-27T12:18:48.576Z,20.96
2022-08-27T12:21:39.617Z,21.10
2022-08-27T12:24:57.993Z,21.05
2022-08-27T12:27:54.235Z,21.47
2022-08-27T12:30:51.979Z,21.39
2022-08-27T12:33:43.899Z,21.30
2022-08-27T12:36:32.620Z,21.39
2022-08-27T12:39:28.195Z,21.55
2022-08-27T12:42:19.035Z,21.94
2022-08-27T12:45:04.657Z,21.97
2022-08-27T12:47:52.705Z,21.87
2022-08-27T12:50:38.408Z,21.51
2022-08-27T12:53:44.935Z,21.60
2022-08-27T12:57:04.522Z,21.61
2022-08-27T13:00:22.869Z,21.73
2022-08-27T13:03:22.299Z,21.42
2022-08-27T13:06:35.488Z,21.53
2022-08-27T13:09:33.253Z,21.58
2022-08-27T13:12:19.626Z,21.76
2022-08-27T13:15:10.580Z,22.04
2022-08-27T13:18:02.370Z,22.44
2022-08-27T13:20:53.045Z,22.50
2022-08-27T13:23:44.829Z,22.10
2022-08-27T13:26:37.379Z,21.87
2022-08-27T13:29:23.633Z,21.87
2022-08-27T13:32:13.987Z,22.02
2022-08-27T13:35:01.398Z,22.37
2022-08-27T13:37:51.391Z,21.95
2022-08-27T13:40:51.729Z,22.41
2022-08-27T13:43:42.321Z,22.33
2022-08-27T13:46:30.774Z,22.20
2022-08-27T13:49:25.537Z,21.86
2022-08-27T13:52:18.636Z,22.19
2022-08-27T13:55:09.235Z,22.61
2022-08-27T13:57:55.484Z,23.54
2022-08-27T14:00:41.561Z,24.04
2022-08-27T14:03:33.958Z,24.03
2022-08-27T14:06:35.844Z,23.73
2022-08-27T14:09:27.621Z,23.59
2022-08-27T14:12:28.952Z,23.53
2022-08-27T14:15:18.812Z,23.29
2022-08-27T14:18:08.048Z,22.93
2022-08-27T14:20:55.001Z,23.20
2022-08-27T14:23:40.278Z,23.51
2022-08-27T14:26:26.760Z,23.80
2022-08-27T14:29:12.625Z,23.84
2022-08-27T14:31:57.982Z,24.27
2022-08-27T14:34:43.804Z,25.02
2022-08-27T14:37:29.700Z,26.02
2022-08-27T14:40:15.403Z,27.60
2022-08-27T14:43:00.803Z,29.31
2022-08-27T14:45:47.272Z,28.46
2022-08-27T14:48:34.342Z,27.07
2022-08-27T14:51:26.421Z,28.89
2022-08-27T14:54:12.131Z,30.08
2022-08-27T14:56:58.949Z,31.07
2022-08-27T14:59:44.400Z,29.93
2022-08-27T15:02:30.073Z,28.44
2022-08-27T15:05:18.302Z,27.63
2022-08-27T15:08:04.499Z,25.67
2022-08-27T15:10:50.430Z,25.31
2022-08-27T15:13:38.518Z,25.61
2022-08-27T15:16:28.182Z,25.88
2022-08-27T15:19:15.303Z,26.65
2022-08-27T15:22:18.796Z,28.21
2022-08-27T15:25:05.471Z,29.30
2022-08-27T15:27:51.521Z,29.16
2022-08-27T15:30:37.988Z,28.84
2022-08-27T15:33:23.582Z,28.27
2022-08-27T15:36:09.332Z,28.62
2022-08-27T15:38:55.127Z,27.87
2022-08-27T15:42:05.109Z,27.18
2022-08-27T15:44:50.273Z,26.72
2022-08-27T15:47:35.781Z,26.95
2022-08-27T15:50:21.295Z,27.05
2022-08-27T15:53:08.736Z,27.35
2022-08-27T15:55:55.532Z,27.61
2022-08-27T15:58:40.876Z,27.59
2022-08-27T16:01:29.698Z,27.15
2022-08-27T16:04:15.644Z,26.88
2022-08-27T16:07:01.236Z,26.44
2022-08-27T16:09:46.679Z,26.37
2022-08-27T16:12:31.916Z,26.24
2022-08-27T16:15:17.430Z,26.53
2022-08-27T16:18:04.338Z,26.45
2022-08-27T16:20:50.004Z,26.53
2022-08-27T16:23:36.160Z,26.48
2022-08-27T16:26:22.167Z,26.62
2022-08-27T16:29:08.489Z,26.63
2022-08-27T16:32:00.559Z,25.49
2022-08-27T16:34:47.576Z,25.63
2022-08-27T16:37:42.382Z,25.22
2022-08-27T16:40:28.273Z,25.12
2022-08-27T16:43:20.927Z,24.60
2022-08-27T16:46:07.342Z,24.46
2022-08-27T16:49:11.642Z,24.42
2022-08-27T16:51:57.455Z,23.92
2022-08-27T16:54:42.912Z,23.74
2022-08-27T16:57:28.333Z,23.81
2022-08-27T17:00:14.035Z,23.47
2022-08-27T17:03:00.365Z,23.35
2022-08-27T17:05:46.177Z,23.01
2022-08-27T17:08:47.797Z,22.78
2022-08-27T17:11:35.530Z,22.63
2022-08-27T17:14:21.205Z,22.57
2022-08-27T17:17:06.426Z,22.36
2022-08-27T17:19:51.927Z,22.18
2022-08-27T17:22:37.898Z,21.99
2022-08-27T17:25:23.325Z,21.86
2022-08-27T17:28:15.784Z,21.79
2022-08-27T17:31:02.264Z,21.69
2022-08-27T17:33:50.348Z,21.63
2022-08-27T17:36:35.765Z,21.68
2022-08-27T17:39:21.351Z,21.70
2022-08-27T17:42:07.437Z,21.75
2022-08-27T17:44:52.804Z,21.84
2022-08-27T17:47:38.465Z,21.78
2022-08-27T17:50:23.950Z,21.59
2022-08-27T17:53:09.483Z,21.47
2022-08-27T17:55:54.893Z,21.33
2022-08-27T17:58:40.854Z,21.11
2022-08-27T18:01:30.155Z,21.13
2022-08-27T18:04:15.867Z,21.08
2022-08-27T18:07:01.216Z,21.08
2022-08-27T18:09:47.530Z,21.00
2022-08-27T18:12:33.386Z,20.95
2022-08-27T18:15:23.491Z,20.80
2022-08-27T18:18:10.068Z,20.85
2022-08-27T18:20:55.809Z,20.70
2022-08-27T18:23:42.657Z,20.59
2022-08-27T18:26:31.138Z,20.48
2022-08-27T18:29:16.823Z,20.45
2022-08-27T18:32:02.246Z,20.49
2022-08-27T18:34:47.846Z,20.35
2022-08-27T18:37:33.453Z,20.19
2022-08-27T18:40:21.033Z,20.08
2022-08-27T18:43:06.869Z,20.24
2022-08-27T18:45:52.458Z,20.03
2022-08-27T18:48:40.962Z,20.02
2022-08-27T18:51:26.710Z,19.92
2022-08-27T18:54:23.343Z,19.82
2022-08-27T18:57:08.746Z,19.68
2022-08-27T18:59:54.154Z,19.67
2022-08-27T19:02:40.466Z,19.53
2022-08-27T19:05:27.664Z,19.49
2022-08-27T19:08:13.725Z,19.42
2022-08-27T19:10:59.215Z,19.32
2022-08-27T19:13:44.702Z,19.33
2022-08-27T19:16:53.761Z,19.39
2022-08-27T19:19:39.433Z,19.29
2022-08-27T19:22:26.709Z,19.25
2022-08-27T19:25:12.667Z,19.22
2022-08-27T19:27:58.287Z,19.19
2022-08-27T19:30:44.772Z,19.23
2022-08-27T19:33:30.552Z,19.23
2022-08-27T19:36:18.828Z,19.19
2022-08-27T19:39:06.175Z,19.14
2022-08-27T19:41:51.347Z,18.96
2022-08-27T19:44:37.094Z,18.95
2022-08-27T19:47:25.808Z,18.91
2022-08-27T19:50:13.356Z,18.93
2022-08-27T19:52:59.107Z,18.73
2022-08-27T19:55:45.967Z,18.72
2022-08-27T19:58:31.498Z,18.69
2022-08-27T20:01:17.126Z,18.65
2022-08-27T20:04:03.844Z,18.48
2022-08-27T20:06:49.486Z,18.50
2022-08-27T20:09:35.353Z,18.37
2022-08-27T20:12:21.353Z,18.29
2022-08-27T20:15:06.906Z,18.34
2022-08-27T20:17:53.971Z,18.19
2022-08-27T20:20:40.498Z,17.97
2022-08-27T20:23:25.956Z,18.01
2022-08-27T20:26:11.696Z,18.12
2022-08-27T20:28:58.094Z,17.82
2022-08-27T20:31:43.922Z,17.74
2022-08-27T20:34:29.570Z,17.75
2022-08-27T20:37:17.184Z,17.66
2022-08-27T20:40:03.510Z,17.70
2022-08-27T20:42:48.879Z,17.52
2022-08-27T20:45:34.722Z,17.56
2022-08-27T20:48:20.277Z,17.51
2022-08-27T20:51:06.157Z,17.41
2022-08-27T20:53:52.245Z,17.27
2022-08-27T20:56:37.557Z,17.20
2022-08-27T20:59:41.655Z,17.27
2022-08-27T21:02:29.303Z,17.27
2022-08-27T21:05:16.316Z,17.16
2022-08-27T21:08:04.476Z,17.11
2022-08-27T21:10:56.691Z,16.94
2022-08-27T21:13:55.636Z,16.99
2022-08-27T21:16:42.405Z,16.95
2022-08-27T21:19:28.041Z,16.90
2022-08-27T21:22:13.367Z,16.87
2022-08-27T21:24:58.658Z,16.87
2022-08-27T21:27:44.334Z,16.87
2022-08-27T21:30:30.614Z,16.84
2022-08-27T21:33:16.281Z,16.67
2022-08-27T21:36:04.383Z,16.60
2022-08-27T21:38:49.917Z,16.62
2022-08-27T21:41:37.552Z,16.52
2022-08-27T21:44:23.360Z,16.52
2022-08-27T21:47:09.804Z,16.56
2022-08-27T21:49:55.336Z,16.47
2022-08-27T21:52:40.826Z,16.38
2022-08-27T21:55:26.319Z,16.34
2022-08-27T21:58:13.631Z,16.33
2022-08-27T22:01:01.647Z,16.27
2022-08-27T22:03:50.591Z,16.24
2022-08-27T22:06:36.138Z,16.19
2022-08-27T22:09:21.740Z,16.09
2022-08-27T22:12:07.311Z,16.08
2022-08-27T22:14:52.717Z,16.08
2022-08-27T22:17:38.093Z,16.06
2022-08-27T22:20:24.629Z,15.96
2022-08-27T22:23:11.840Z,15.90
2022-08-27T22:25:57.870Z,15.90
2022-08-27T22:28:43.200Z,15.90
2022-08-27T22:31:28.900Z,15.93
2022-08-27T22:34:15.100Z,15.84
2022-08-27T22:37:01.692Z,15.76
2022-08-27T22:39:47.153Z,15.57
2022-08-27T22:42:32.606Z,15.60
2022-08-27T22:45:20.422Z,15.66
2022-08-27T22:48:06.062Z,15.73
2022-08-27T22:50:51.603Z,15.61
2022-08-27T22:53:39.386Z,15.56
2022-08-27T22:56:25.672Z,15.51
2022-08-27T22:59:11.027Z,15.48
2022-08-27T23:01:57.199Z,15.46
2022-08-27T23:04:54.597Z,15.46
2022-08-27T23:07:41.306Z,15.35
2022-08-27T23:10:27.476Z,15.31
2022-08-27T23:13:13.455Z,15.45
2022-08-27T23:16:00.548Z,15.33
2022-08-27T23:18:46.030Z,15.41
2022-08-27T23:21:31.683Z,15.29
2022-08-27T23:24:17.131Z,15.33
2022-08-27T23:27:21.212Z,15.24
2022-08-27T23:30:07.965Z,15.22
2022-08-27T23:32:55.315Z,15.19
2022-08-27T23:35:44.318Z,15.22
2022-08-27T23:38:30.227Z,15.18
2022-08-27T23:41:16.279Z,15.12
2022-08-27T23:44:02.066Z,15.07
2022-08-27T23:46:48.515Z,15.06
2022-08-27T23:49:36.135Z,15.10
2022-08-27T23:52:21.820Z,15.09
2022-08-27T23:55:09.570Z,14.99
2022-08-27T23:57:57.616Z,15.05
